St. SADURNÍ D'OSORMORT (Osona)





Hora UTC 06:45
Temperatura 21.4 ºC
Humitat 83.8 %
Pressió 1010.3 hPa
Pluja 0.0 mm
Velocitat vent 3.8 km/h
Direcció vent E

Dades diàries 2024-07-21



Hora UTC (hivern +1h; estiu +2h)
Temperatura (ºC) Humitat (%) Pressió (hPa) Velocitat vent (km/h) Precipitació (mm)
Hora UTC Aire Humitat Pressió Vel. Dir. Vel. Max Dir. Intent. màx 5 min.
00:05 16.4 90.6 1009.0 0.0 NNE 0.0 ENE 0.0
00:10 16.3 90.5 1009.0 0.0 NNE 0.0 ENE 0.0
00:15 16.3 90.6 1009.0 0.0 NNE 0.0 ENE 0.0
00:20 16.3 90.6 1009.0 0.0 NNE 0.0 ENE 0.0
00:25 16.2 90.5 1009.1 0.0 NNE 0.0 ENE 0.0
00:30 16.2 90.6 1009.1 0.0 NNE 0.0 ENE 0.0
00:35 16.1 90.7 1009.0 0.0 NNE 0.0 ENE 0.0
00:40 16.1 90.9 1009.0 0.0 NNE 0.0 ENE 0.0
00:45 16.2 91.0 1009.0 0.0 NNE 0.0 ENE 0.0
00:50 16.2 91.0 1009.0 0.0 NNE 0.0 ENE 0.0
00:55 16.1 91.1 1009.0 0.0 NNE 0.0 ENE 0.0
01:00 16.0 91.1 1009.0 0.0 NNE 0.0 ENE 0.0
01:05 16.0 91.3 1009.1 0.7 NE 3.4 NE 0.0
01:10 16.1 91.1 1009.1 0.0 NNE 0.0 NE 0.0
01:15 16.0 90.9 1008.9 0.0 NNE 0.0 NE 0.0
01:20 15.9 91.0 1008.9 0.1 NE 3.4 NE 0.0
01:25 15.9 91.1 1008.9 0.3 NE 3.4 NE 0.0
01:30 15.8 91.0 1008.9 0.0 NNE 0.0 NE 0.0
01:35 15.8 91.3 1009.1 0.5 NE 3.4 NE 0.0
01:40 15.8 91.3 1009.1 0.0 NNE 0.0 NE 0.0
01:45 15.6 91.1 1009.1 0.0 NNE 0.0 NE 0.0
01:50 15.5 91.2 1009.1 0.0 NNE 0.0 NE 0.0
01:55 15.4 91.4 1009.1 0.0 NNE 0.0 NE 0.0
02:00 15.4 91.5 1009.1 0.0 NNE 0.0 NE 0.0
02:05 15.4 91.6 1009.0 0.0 NNE 0.0 NE 0.0
02:10 15.3 91.7 1009.0 0.0 NNE 0.0 NE 0.0
02:15 15.2 91.6 1008.9 0.0 NNE 0.0 NE 0.0
02:20 15.2 91.8 1008.9 0.0 NNE 0.0 NE 0.0
02:25 15.2 91.8 1009.0 0.0 NNE 0.0 NE 0.0
02:30 15.2 91.8 1009.0 0.0 NNE 0.0 NE 0.0
02:35 15.2 91.9 1009.1 0.4 NE 3.4 NE 0.0
02:40 15.1 91.9 1009.1 0.0 NNE 0.0 NE 0.0
02:45 15.1 91.9 1009.1 0.0 NNE 0.0 NE 0.0
02:50 15.1 92.0 1009.1 0.0 NNE 0.0 NE 0.0
02:55 15.1 92.0 1009.2 0.0 NNE 0.0 NE 0.0
03:00 15.1 92.0 1009.2 0.0 NNE 0.0 NE 0.0
03:05 15.1 92.0 1009.2 0.0 NNE 0.0 NE 0.0
03:10 15.1 92.1 1009.2 0.0 NNE 0.0 NE 0.0
03:15 15.1 92.1 1009.4 0.0 NNE 0.0 NE 0.0
03:20 15.2 92.2 1009.4 0.0 NNE 0.0 NE 0.0
03:25 15.3 92.2 1009.6 0.1 NE 3.4 NE 0.0
03:30 15.4 92.2 1009.6 0.3 NE 3.4 NE 0.0
03:35 15.5 92.2 1009.7 0.4 S 6.1 SE 0.0
03:40 15.6 92.3 1009.7 0.4 ESE 3.4 S 0.0
03:45 16.2 92.9 1009.7 0.7 NE 8.8 NNE 0.0
03:50 17.5 94.0 1009.7 0.8 NNE 6.1 NW 0.0
03:55 18.5 93.7 1009.6 0.8 ENE 6.1 NE 0.0
04:00 19.2 92.9 1009.6 0.6 NE 6.1 SE 0.0
04:05 19.5 91.8 1009.6 1.1 NNE 6.1 SSE 0.0
04:10 19.9 90.5 1009.6 1.1 NE 6.1 ENE 0.0
04:15 20.6 88.9 1009.4 2.2 N 6.1 NE 0.0
04:20 21.0 86.3 1009.4 1.2 NNW 6.1 N 0.0
04:25 21.0 84.5 1009.5 1.5 ENE 6.1 WNW 0.0
04:30 21.3 84.1 1009.5 0.7 NW 6.1 NW 0.0
04:35 21.3 83.6 1009.6 0.0 NNE 0.0 SE 0.0
04:40 21.2 83.3 1009.6 0.0 NNE 0.0 SSW 0.0
04:45 21.2 83.7 1009.6 0.0 ENE 3.4 ENE 0.0
04:50 21.2 83.7 1009.6 0.3 SSW 3.4 ENE 0.0
04:55 21.1 83.8 1009.7 0.2 SW 3.4 SW 0.0
05:00 21.1 84.1 1009.7 0.1 SSE 3.4 S 0.0
05:05 21.2 84.4 1009.7 0.2 N 6.1 N 0.0
05:10 21.3 84.2 1009.7 0.6 ENE 6.1 E 0.0
05:15 21.4 83.8 1009.7 1.7 WNW 8.8 NW 0.0
05:20 21.5 83.5 1009.7 0.9 NNW 6.1 NW 0.0
05:25 21.6 83.2 1009.8 0.9 E 6.1 E 0.0
05:30 21.7 82.4 1009.8 1.6 WNW 6.1 WSW 0.0
05:35 21.8 82.1 1009.8 1.2 W 6.1 W 0.0
05:40 21.8 82.2 1009.8 0.9 W 6.1 W 0.0
05:45 21.7 83.0 1009.8 0.0 NNE 0.0 W 0.0
05:50 21.7 83.4 1009.8 1.8 NW 6.1 NNW 0.0
05:55 21.7 83.8 1009.9 0.7 SE 6.1 ESE 0.0
06:00 21.7 83.9 1009.9 1.6 SSE 6.1 SW 0.0
06:05 21.7 83.8 1010.1 0.8 SSE 6.1 SE 0.0
06:10 21.7 83.6 1010.1 0.8 SE 6.1 SE 0.0
06:15 21.6 83.5 1010.3 1.4 SSE 6.1 SSE 0.0
06:20 21.6 83.9 1010.3 1.4 ESE 6.1 SE 0.0
06:25 21.5 83.9 1010.4 0.0 NNE 0.0 SE 0.0
06:30 21.4 83.8 1010.4 1.1 E 6.1 ENE 0.0
06:35 21.3 83.9 1010.4 1.5 SE 6.1 SSE 0.0
06:40 21.2 84.3 1010.4 2.8 SE 6.1 SE 0.0
06:45 21.4 83.8 1010.3 3.8 E 8.8 E 0.0
Màxima 21.8 94.0 1010.4 3.8 E 8.8 E 0.0
Mínima 15.0 82.1 1008.9
Total 0.0